sensor_id;sensor_type;location;lat;lon;timestamp;P1;durP1;ratioP1;P2;durP2;ratioP2
9234;SDS011;4652;42.716;23.218;2023-04-03T00:04:43;2.10;;;2.00;;
9234;SDS011;4652;42.716;23.218;2023-04-03T00:11:26;3.03;;;2.37;;
9234;SDS011;4652;42.716;23.218;2023-04-03T00:18:08;2.57;;;2.33;;
9234;SDS011;4652;42.716;23.218;2023-04-03T00:24:50;2.63;;;2.30;;
9234;SDS011;4652;42.716;23.218;2023-04-03T00:31:33;8.47;;;4.67;;
9234;SDS011;4652;42.716;23.218;2023-04-03T00:38:16;5.17;;;3.70;;
9234;SDS011;4652;42.716;23.218;2023-04-03T00:52:16;4.37;;;3.60;;
9234;SDS011;4652;42.716;23.218;2023-04-03T00:59:02;4.20;;;3.40;;
9234;SDS011;4652;42.716;23.218;2023-04-03T02:38:36;3.50;;;3.20;;
9234;SDS011;4652;42.716;23.218;2023-04-03T02:45:18;3.23;;;2.87;;
9234;SDS011;4652;42.716;23.218;2023-04-03T02:52:01;2.50;;;2.30;;
9234;SDS011;4652;42.716;23.218;2023-04-03T02:58:44;3.03;;;2.50;;
9234;SDS011;4652;42.716;23.218;2023-04-03T03:05:26;2.83;;;2.63;;
9234;SDS011;4652;42.716;23.218;2023-04-03T03:12:09;3.17;;;2.87;;
9234;SDS011;4652;42.716;23.218;2023-04-03T03:18:52;4.33;;;2.50;;
9234;SDS011;4652;42.716;23.218;2023-04-03T03:25:37;3.30;;;3.00;;
9234;SDS011;4652;42.716;23.218;2023-04-03T03:32:20;3.87;;;2.87;;
9234;SDS011;4652;42.716;23.218;2023-04-03T03:39:03;3.50;;;3.20;;
9234;SDS011;4652;42.716;23.218;2023-04-03T03:45:46;2.97;;;2.77;;
9234;SDS011;4652;42.716;23.218;2023-04-03T03:52:32;3.03;;;2.70;;
9234;SDS011;4652;42.716;23.218;2023-04-03T03:59:15;4.47;;;3.90;;
9234;SDS011;4652;42.716;23.218;2023-04-03T04:05:58;9.00;;;4.50;;
9234;SDS011;4652;42.716;23.218;2023-04-03T04:12:40;6.30;;;5.40;;
9234;SDS011;4652;42.716;23.218;2023-04-03T04:19:23;5.30;;;4.20;;
9234;SDS011;4652;42.716;23.218;2023-04-03T04:26:05;5.03;;;4.53;;
9234;SDS011;4652;42.716;23.218;2023-04-03T04:32:47;6.13;;;4.93;;
9234;SDS011;4652;42.716;23.218;2023-04-03T04:39:31;6.27;;;4.67;;
9234;SDS011;4652;42.716;23.218;2023-04-03T04:46:13;8.40;;;5.20;;
9234;SDS011;4652;42.716;23.218;2023-04-03T04:52:55;8.53;;;5.50;;
9234;SDS011;4652;42.716;23.218;2023-04-03T04:59:39;7.67;;;5.43;;
9234;SDS011;4652;42.716;23.218;2023-04-03T05:06:21;10.63;;;8.17;;
9234;SDS011;4652;42.716;23.218;2023-04-03T05:13:03;10.33;;;8.27;;
9234;SDS011;4652;42.716;23.218;2023-04-03T05:19:46;11.93;;;6.80;;
9234;SDS011;4652;42.716;23.218;2023-04-03T05:26:28;12.83;;;7.57;;
9234;SDS011;4652;42.716;23.218;2023-04-03T05:33:11;10.23;;;8.43;;
9234;SDS011;4652;42.716;23.218;2023-04-03T05:39:55;13.70;;;8.73;;
9234;SDS011;4652;42.716;23.218;2023-04-03T05:46:37;12.23;;;10.33;;
9234;SDS011;4652;42.716;23.218;2023-04-03T05:53:21;10.00;;;5.60;;
9234;SDS011;4652;42.716;23.218;2023-04-03T06:00:08;6.97;;;4.40;;
9234;SDS011;4652;42.716;23.218;2023-04-03T06:06:55;6.73;;;5.10;;
9234;SDS011;4652;42.716;23.218;2023-04-03T06:13:38;6.70;;;5.40;;
9234;SDS011;4652;42.716;23.218;2023-04-03T06:20:21;4.60;;;4.20;;
9234;SDS011;4652;42.716;23.218;2023-04-03T06:27:04;5.67;;;4.40;;
9234;SDS011;4652;42.716;23.218;2023-04-03T06:33:46;5.17;;;4.67;;
9234;SDS011;4652;42.716;23.218;2023-04-03T06:40:29;5.83;;;4.67;;
9234;SDS011;4652;42.716;23.218;2023-04-03T06:47:11;5.10;;;4.60;;
9234;SDS011;4652;42.716;23.218;2023-04-03T06:53:55;6.70;;;6.00;;
9234;SDS011;4652;42.716;23.218;2023-04-03T07:25:13;5.67;;;4.20;;
9234;SDS011;4652;42.716;23.218;2023-04-03T07:31:56;5.20;;;4.10;;
9234;SDS011;4652;42.716;23.218;2023-04-03T07:38:38;5.83;;;3.40;;
9234;SDS011;4652;42.716;23.218;2023-04-03T07:45:22;3.00;;;2.80;;
9234;SDS011;4652;42.716;23.218;2023-04-03T07:52:04;3.80;;;3.20;;
9234;SDS011;4652;42.716;23.218;2023-04-03T07:58:47;4.90;;;3.77;;
9234;SDS011;4652;42.716;23.218;2023-04-03T08:05:30;4.87;;;3.53;;
9234;SDS011;4652;42.716;23.218;2023-04-03T08:12:13;5.50;;;4.33;;
9234;SDS011;4652;42.716;23.218;2023-04-03T08:18:55;5.17;;;4.50;;
9234;SDS011;4652;42.716;23.218;2023-04-03T08:25:39;7.37;;;6.03;;
9234;SDS011;4652;42.716;23.218;2023-04-03T08:32:21;7.90;;;5.60;;
9234;SDS011;4652;42.716;23.218;2023-04-03T08:39:03;12.33;;;8.00;;
9234;SDS011;4652;42.716;23.218;2023-04-03T08:45:48;9.17;;;8.10;;
9234;SDS011;4652;42.716;23.218;2023-04-03T08:52:34;6.10;;;5.53;;
9234;SDS011;4652;42.716;23.218;2023-04-03T08:59:21;10.67;;;6.60;;
9234;SDS011;4652;42.716;23.218;2023-04-03T09:06:10;10.97;;;8.83;;
9234;SDS011;4652;42.716;23.218;2023-04-03T09:12:58;10.40;;;9.30;;
9234;SDS011;4652;42.716;23.218;2023-04-03T09:19:47;13.93;;;8.90;;
9234;SDS011;4652;42.716;23.218;2023-04-03T09:26:39;14.13;;;10.00;;
9234;SDS011;4652;42.716;23.218;2023-04-03T09:33:26;10.60;;;8.03;;
9234;SDS011;4652;42.716;23.218;2023-04-03T09:47:18;15.00;;;8.93;;
9234;SDS011;4652;42.716;23.218;2023-04-03T10:01:21;15.27;;;10.57;;
9234;SDS011;4652;42.716;23.218;2023-04-03T10:08:20;14.43;;;12.10;;
9234;SDS011;4652;42.716;23.218;2023-04-03T10:15:10;20.73;;;14.87;;
9234;SDS011;4652;42.716;23.218;2023-04-03T10:21:55;17.87;;;13.00;;
9234;SDS011;4652;42.716;23.218;2023-04-03T10:28:43;15.57;;;10.60;;
9234;SDS011;4652;42.716;23.218;2023-04-03T10:35:34;13.80;;;10.43;;
9234;SDS011;4652;42.716;23.218;2023-04-03T10:42:26;12.87;;;10.27;;
9234;SDS011;4652;42.716;23.218;2023-04-03T10:49:21;9.97;;;7.50;;
9234;SDS011;4652;42.716;23.218;2023-04-03T10:56:13;8.77;;;7.87;;
9234;SDS011;4652;42.716;23.218;2023-04-03T11:03:03;10.30;;;7.60;;
9234;SDS011;4652;42.716;23.218;2023-04-03T11:09:49;8.43;;;7.17;;
9234;SDS011;4652;42.716;23.218;2023-04-03T11:16:36;7.83;;;5.30;;
9234;SDS011;4652;42.716;23.218;2023-04-03T11:23:24;4.37;;;3.97;;
9234;SDS011;4652;42.716;23.218;2023-04-03T11:30:10;5.43;;;4.93;;
9234;SDS011;4652;42.716;23.218;2023-04-03T11:36:59;7.20;;;5.90;;
9234;SDS011;4652;42.716;23.218;2023-04-03T11:43:53;5.67;;;5.10;;
9234;SDS011;4652;42.716;23.218;2023-04-03T11:50:43;7.00;;;5.13;;
9234;SDS011;4652;42.716;23.218;2023-04-03T11:57:45;6.40;;;4.27;;
9234;SDS011;4652;42.716;23.218;2023-04-03T12:04:45;5.37;;;4.87;;
9234;SDS011;4652;42.716;23.218;2023-04-03T12:26:21;7.10;;;5.57;;
9234;SDS011;4652;42.716;23.218;2023-04-03T12:40:16;8.57;;;7.30;;
9234;SDS011;4652;42.716;23.218;2023-04-03T12:47:13;6.30;;;5.70;;
9234;SDS011;4652;42.716;23.218;2023-04-03T12:54:13;5.77;;;5.17;;
9234;SDS011;4652;42.716;23.218;2023-04-03T13:25:14;13.17;;;10.50;;
9234;SDS011;4652;42.716;23.218;2023-04-03T13:31:57;14.93;;;11.60;;
9234;SDS011;4652;42.716;23.218;2023-04-03T13:38:41;11.63;;;9.60;;
9234;SDS011;4652;42.716;23.218;2023-04-03T13:45:25;10.77;;;9.67;;
9234;SDS011;4652;42.716;23.218;2023-04-03T13:52:21;8.67;;;7.17;;
9234;SDS011;4652;42.716;23.218;2023-04-03T13:59:19;8.00;;;7.00;;
9234;SDS011;4652;42.716;23.218;2023-04-03T14:06:06;10.27;;;9.27;;
9234;SDS011;4652;42.716;23.218;2023-04-03T14:12:50;12.17;;;11.07;;
9234;SDS011;4652;42.716;23.218;2023-04-03T14:19:33;14.47;;;11.33;;
9234;SDS011;4652;42.716;23.218;2023-04-03T14:26:18;25.30;;;19.60;;
9234;SDS011;4652;42.716;23.218;2023-04-03T14:33:02;12.93;;;11.50;;
9234;SDS011;4652;42.716;23.218;2023-04-03T14:39:45;22.70;;;20.33;;
9234;SDS011;4652;42.716;23.218;2023-04-03T14:46:30;15.60;;;13.93;;
9234;SDS011;4652;42.716;23.218;2023-04-03T14:53:14;11.07;;;9.97;;
9234;SDS011;4652;42.716;23.218;2023-04-03T14:59:56;10.13;;;8.57;;
9234;SDS011;4652;42.716;23.218;2023-04-03T15:06:40;9.63;;;8.60;;
9234;SDS011;4652;42.716;23.218;2023-04-03T15:13:23;10.30;;;9.33;;
9234;SDS011;4652;42.716;23.218;2023-04-03T15:20:09;9.67;;;8.57;;
9234;SDS011;4652;42.716;23.218;2023-04-03T15:26:55;8.87;;;8.00;;
9234;SDS011;4652;42.716;23.218;2023-04-03T15:33:37;19.83;;;14.00;;
9234;SDS011;4652;42.716;23.218;2023-04-03T15:40:19;10.97;;;9.77;;
9234;SDS011;4652;42.716;23.218;2023-04-03T15:47:03;10.10;;;7.90;;
9234;SDS011;4652;42.716;23.218;2023-04-03T15:53:45;10.67;;;9.03;;
9234;SDS011;4652;42.716;23.218;2023-04-03T16:00:27;9.60;;;8.60;;
9234;SDS011;4652;42.716;23.218;2023-04-03T16:07:11;11.80;;;9.50;;
9234;SDS011;4652;42.716;23.218;2023-04-03T16:13:52;16.20;;;12.57;;
9234;SDS011;4652;42.716;23.218;2023-04-03T16:20:35;14.20;;;10.20;;
9234;SDS011;4652;42.716;23.218;2023-04-03T16:27:19;15.00;;;10.67;;
9234;SDS011;4652;42.716;23.218;2023-04-03T16:34:02;21.33;;;13.87;;
9234;SDS011;4652;42.716;23.218;2023-04-03T16:40:44;20.93;;;13.17;;
9234;SDS011;4652;42.716;23.218;2023-04-03T16:47:27;12.10;;;10.23;;
9234;SDS011;4652;42.716;23.218;2023-04-03T16:54:10;16.13;;;13.73;;
9234;SDS011;4652;42.716;23.218;2023-04-03T17:00:53;18.87;;;16.57;;
9234;SDS011;4652;42.716;23.218;2023-04-03T17:07:37;15.23;;;11.83;;
9234;SDS011;4652;42.716;23.218;2023-04-03T17:14:19;21.40;;;16.47;;
9234;SDS011;4652;42.716;23.218;2023-04-03T17:21:02;10.57;;;9.37;;
9234;SDS011;4652;42.716;23.218;2023-04-03T17:27:47;13.27;;;11.13;;
9234;SDS011;4652;42.716;23.218;2023-04-03T17:34:29;11.37;;;7.63;;
9234;SDS011;4652;42.716;23.218;2023-04-03T17:41:12;10.73;;;8.87;;
9234;SDS011;4652;42.716;23.218;2023-04-03T17:47:56;7.03;;;6.37;;
9234;SDS011;4652;42.716;23.218;2023-04-03T17:54:38;9.87;;;6.47;;
9234;SDS011;4652;42.716;23.218;2023-04-03T18:01:21;8.40;;;7.50;;
9234;SDS011;4652;42.716;23.218;2023-04-03T18:08:05;6.87;;;6.17;;
9234;SDS011;4652;42.716;23.218;2023-04-03T18:14:48;7.77;;;6.50;;
9234;SDS011;4652;42.716;23.218;2023-04-03T18:21:30;7.87;;;7.07;;
9234;SDS011;4652;42.716;23.218;2023-04-03T18:28:13;9.97;;;8.97;;
9234;SDS011;4652;42.716;23.218;2023-04-03T19:08:07;10.67;;;6.93;;
